Time;durP1;ratioP1;P1;durP2;ratioP2;P2;SDS_P1;SDS_P2;PMS_P1;PMS_P2;Temp;Humidity;BMP_temperature;BMP_pressure;BME280_temperature;BME280_humidity;BME280_pressure;Samples;Min_cycle;Max_cycle;Signal;HPM_P1;HPM_P2
2024/04/22 00:01:08;;;;;;;7.63;5.72;;;2.80;99.90;;;;;;5307958;26;20016;-67
2024/04/22 00:03:35;;;;;;;8.85;5.93;;;2.70;99.90;;;;;;5289450;26;20021;-67
2024/04/22 00:06:02;;;;;;;7.53;5.85;;;2.70;99.90;;;;;;5314586;26;20466;-67
2024/04/22 00:08:29;;;;;;;6.00;5.10;;;2.60;99.90;;;;;;5326225;26;19997;-67
2024/04/22 00:11:03;;;;;;;8.85;6.18;;;2.60;99.90;;;;;;5322240;26;20472;-67
2024/04/22 00:13:30;;;;;;;7.20;5.43;;;2.60;99.90;;;;;;5356291;26;20005;-67
2024/04/22 00:15:57;;;;;;;9.57;5.85;;;2.60;99.90;;;;;;5323653;26;20019;-67
2024/04/22 00:18:24;;;;;;;7.57;6.07;;;2.60;99.90;;;;;;5327750;26;20010;-67
2024/04/22 00:20:52;;;;;;;7.25;5.57;;;2.60;99.90;;;;;;5326929;26;20006;-67
2024/04/22 00:23:20;;;;;;;6.05;5.45;;;2.60;99.90;;;;;;5326192;26;20001;-67
2024/04/22 00:25:47;;;;;;;6.72;5.43;;;2.50;99.90;;;;;;5332101;26;20009;-67
2024/04/22 00:28:14;;;;;;;6.80;5.60;;;2.50;99.90;;;;;;5325785;26;20006;-67
2024/04/22 00:30:41;;;;;;;7.50;5.35;;;2.60;99.90;;;;;;5313166;26;20458;-67
2024/04/22 00:33:09;;;;;;;6.03;4.80;;;2.50;99.90;;;;;;5328056;26;20012;-67
2024/04/22 00:35:38;;;;;;;6.15;5.18;;;2.50;99.90;;;;;;5313326;26;20014;-67
2024/04/22 00:38:05;;;;;;;7.85;6.00;;;2.50;99.90;;;;;;5305567;26;20006;-67
2024/04/22 00:40:32;;;;;;;6.60;5.18;;;2.50;99.90;;;;;;5312197;26;20013;-67
2024/04/22 00:42:59;;;;;;;8.68;5.85;;;2.40;99.90;;;;;;5323831;26;20501;-67
2024/04/22 00:45:26;;;;;;;6.95;5.43;;;2.50;99.90;;;;;;5316059;26;20014;-67
2024/04/22 00:47:53;;;;;;;6.82;5.32;;;2.40;99.90;;;;;;5323531;26;20008;-67
2024/04/22 00:50:21;;;;;;;10.30;5.78;;;2.40;99.90;;;;;;5326675;26;20002;-67
2024/04/22 00:52:53;;;;;;;6.32;5.38;;;2.40;99.90;;;;;;5318681;26;20012;-67
2024/04/22 00:55:26;;;;;;;6.95;5.70;;;2.40;99.90;;;;;;5327758;26;20005;-67
2024/04/22 00:57:57;;;;;;;8.93;5.40;;;2.30;99.90;;;;;;5323029;26;20001;-67
2024/04/22 01:00:25;;;;;;;9.20;4.90;;;2.30;99.90;;;;;;5327225;26;20133;-67
2024/04/22 01:02:53;;;;;;;8.18;5.80;;;2.30;99.90;;;;;;5327579;26;20005;-67
2024/04/22 01:05:20;;;;;;;7.88;5.43;;;2.40;99.90;;;;;;5319155;26;20009;-67
2024/04/22 01:07:47;;;;;;;7.60;5.90;;;2.30;99.90;;;;;;5322250;26;20031;-67
2024/04/22 01:10:14;;;;;;;6.85;4.90;;;2.30;99.90;;;;;;5286681;26;20009;-67
2024/04/22 01:12:41;;;;;;;5.68;4.47;;;2.30;99.90;;;;;;5328118;26;20044;-67
2024/04/22 01:15:08;;;;;;;6.75;5.40;;;2.40;99.90;;;;;;5315749;26;20087;-67
2024/04/22 01:17:44;;;;;;;8.00;5.38;;;2.40;99.90;;;;;;5310252;26;19998;-67
2024/04/22 01:20:16;;;;;;;11.73;7.53;;;2.30;99.90;;;;;;5317516;26;20033;-67
2024/04/22 01:22:44;;;;;;;9.00;5.70;;;2.30;99.90;;;;;;5314784;26;20046;-66
2024/04/22 01:25:11;;;;;;;8.40;5.63;;;2.30;99.90;;;;;;5291013;26;20021;-67
2024/04/22 01:27:42;;;;;;;7.03;5.05;;;2.30;99.90;;;;;;5318778;26;20057;-67
2024/04/22 01:30:11;;;;;;;7.13;5.57;;;2.30;99.90;;;;;;5322439;26;20001;-67
2024/04/22 01:32:37;;;;;;;6.38;4.75;;;2.30;99.90;;;;;;5320061;26;20005;-67
2024/04/22 01:35:04;;;;;;;9.50;6.60;;;2.30;99.90;;;;;;5324106;26;20034;-67
2024/04/22 01:37:32;;;;;;;8.75;5.43;;;2.20;99.90;;;;;;5325758;26;20083;-67
2024/04/22 01:39:59;;;;;;;6.88;5.18;;;2.20;99.90;;;;;;5322356;26;20462;-67
2024/04/22 01:42:26;;;;;;;6.65;5.15;;;2.20;99.90;;;;;;5322301;26;20602;-67
2024/04/22 01:44:52;;;;;;;7.10;5.90;;;2.20;99.90;;;;;;5325048;26;20049;-67
2024/04/22 01:47:24;;;;;;;6.72;5.07;;;2.20;99.90;;;;;;5355293;26;20762;-67
2024/04/22 01:49:56;;;;;;;6.75;5.68;;;2.20;99.90;;;;;;5320423;26;20006;-67
2024/04/22 01:52:23;;;;;;;6.50;5.55;;;2.20;99.90;;;;;;5312927;26;20019;-67
2024/04/22 01:54:50;;;;;;;7.68;6.13;;;2.10;99.90;;;;;;5311143;26;20013;-67
2024/04/22 01:57:18;;;;;;;6.97;6.15;;;2.20;99.90;;;;;;5305108;26;20384;-67
2024/04/22 01:59:45;;;;;;;7.43;5.78;;;2.10;99.90;;;;;;5313907;26;20831;-67
2024/04/22 02:02:12;;;;;;;7.80;5.65;;;2.10;99.90;;;;;;5316726;26;20009;-68
2024/04/22 02:04:39;;;;;;;7.10;5.78;;;2.10;99.90;;;;;;5315440;26;20358;-67
2024/04/22 02:07:11;;;;;;;7.68;6.40;;;2.10;99.90;;;;;;5320917;26;20009;-67
2024/04/22 02:09:43;;;;;;;9.15;6.65;;;2.10;99.90;;;;;;5321891;26;20447;-67
2024/04/22 02:12:10;;;;;;;7.45;6.00;;;2.10;99.90;;;;;;5326474;26;20021;-67
2024/04/22 02:14:43;;;;;;;10.27;5.30;;;2.10;99.90;;;;;;5323098;26;20005;-67
2024/04/22 02:17:10;;;;;;;7.43;5.32;;;2.10;99.90;;;;;;5323306;26;20013;-68
2024/04/22 02:19:37;;;;;;;8.23;5.93;;;2.10;99.90;;;;;;5324877;26;20044;-67
2024/04/22 02:22:04;;;;;;;9.02;6.28;;;2.10;99.90;;;;;;5322001;26;20001;-67
2024/04/22 02:24:31;;;;;;;7.00;5.88;;;2.10;99.90;;;;;;5322561;26;20029;-67
2024/04/22 02:26:58;;;;;;;7.72;6.22;;;2.10;99.90;;;;;;5318066;26;20083;-67
2024/04/22 02:29:25;;;;;;;10.13;6.07;;;2.10;99.90;;;;;;5314229;26;20006;-67
2024/04/22 02:31:52;;;;;;;7.25;6.13;;;2.10;99.90;;;;;;5312234;26;20033;-67
2024/04/22 02:34:19;;;;;;;7.97;6.03;;;2.10;99.90;;;;;;5312544;26;20009;-67
2024/04/22 02:36:46;;;;;;;9.10;6.63;;;2.00;99.90;;;;;;5309862;26;20002;-67
2024/04/22 02:39:13;;;;;;;8.23;6.53;;;2.00;99.90;;;;;;5311433;26;20001;-67
2024/04/22 02:41:39;;;;;;;10.32;6.90;;;2.00;99.90;;;;;;5323460;26;20395;-67
2024/04/22 02:44:06;;;;;;;8.40;6.70;;;2.00;99.90;;;;;;5315932;26;20001;-68
2024/04/22 02:46:35;;;;;;;10.23;6.97;;;2.00;99.90;;;;;;5319465;26;20087;-67
2024/04/22 02:49:01;;;;;;;9.05;7.53;;;2.00;99.90;;;;;;5322600;26;20005;-67
2024/04/22 02:51:28;;;;;;;8.52;6.55;;;2.00;99.90;;;;;;5322917;26;20413;-66
2024/04/22 02:53:55;;;;;;;7.90;6.65;;;2.00;99.90;;;;;;5325513;26;20006;-68
2024/04/22 02:56:22;;;;;;;9.50;6.80;;;2.00;99.90;;;;;;5326082;26;20017;-67
2024/04/22 02:58:49;;;;;;;8.55;6.80;;;1.90;99.90;;;;;;5326988;26;20016;-67
2024/04/22 03:01:15;;;;;;;8.43;6.50;;;2.00;99.90;;;;;;5331510;26;20009;-67
2024/04/22 03:03:47;;;;;;;9.20;6.57;;;2.00;99.90;;;;;;5316587;26;20007;-67
2024/04/22 03:06:14;;;;;;;9.30;6.75;;;2.00;99.90;;;;;;5327958;26;20005;-68
2024/04/22 03:08:42;;;;;;;9.27;6.65;;;2.00;99.90;;;;;;5330895;26;20024;-67
2024/04/22 03:11:09;;;;;;;7.20;6.45;;;2.00;99.90;;;;;;5319638;26;20043;-67
2024/04/22 03:13:36;;;;;;;9.48;6.20;;;2.00;99.90;;;;;;5310528;26;20021;-67
2024/04/22 03:16:03;;;;;;;7.65;6.07;;;2.00;99.90;;;;;;5311958;26;20502;-67
2024/04/22 03:18:29;;;;;;;9.18;7.15;;;2.00;99.90;;;;;;5326249;26;20029;-67
2024/04/22 03:20:57;;;;;;;12.18;7.60;;;2.00;99.90;;;;;;5316950;26;20484;-67
2024/04/22 03:23:24;;;;;;;7.88;6.43;;;2.00;99.90;;;;;;5325579;26;20014;-67
2024/04/22 03:25:56;;;;;;;7.75;5.68;;;2.00;99.90;;;;;;5325240;26;20005;-67
2024/04/22 03:28:22;;;;;;;8.93;5.72;;;2.00;99.90;;;;;;5312482;26;20406;-67
2024/04/22 03:30:54;;;;;;;10.95;6.47;;;2.00;99.90;;;;;;5323043;26;20036;-67
2024/04/22 03:33:21;;;;;;;8.02;5.97;;;1.90;99.90;;;;;;5328508;26;20078;-67
2024/04/22 03:35:48;;;;;;;9.93;7.25;;;2.20;99.90;;;;;;5326678;26;20032;-67
2024/04/22 03:38:15;;;;;;;6.80;5.93;;;2.30;99.90;;;;;;5325780;26;20038;-67
2024/04/22 03:40:47;;;;;;;8.63;6.22;;;2.30;99.90;;;;;;5323493;26;20029;-66
2024/04/22 03:43:14;;;;;;;8.50;6.35;;;2.30;99.90;;;;;;5329683;26;20001;-67
2024/04/22 03:49:51;;;;;;;7.65;5.47;;;2.20;99.90;;;;;;5318434;26;20043;-67
2024/04/22 03:51:18;;;;;;;6.22;5.28;;;2.10;99.90;;;;;;5313275;26;20002;-67
2024/04/22 03:53:45;;;;;;;7.32;5.15;;;2.10;99.90;;;;;;5311740;26;20006;-67
2024/04/22 03:56:12;;;;;;;9.93;4.78;;;2.10;99.90;;;;;;5312908;26;20005;-67
2024/04/22 03:58:38;;;;;;;11.45;7.40;;;2.00;99.90;;;;;;5314296;26;20458;-67
2024/04/22 04:01:05;;;;;;;10.38;7.40;;;2.00;99.90;;;;;;5315874;26;20006;-66
2024/04/22 04:03:37;;;;;;;24.05;16.88;;;2.00;99.90;;;;;;5349774;26;20382;-67
2024/04/22 04:06:04;;;;;;;16.27;12.32;;;2.00;99.90;;;;;;5322575;26;20001;-66
2024/04/22 04:08:31;;;;;;;9.52;7.88;;;2.00;99.90;;;;;;5325051;26;20522;-67
2024/04/22 04:11:04;;;;;;;7.10;6.03;;;2.00;99.90;;;;;;5380907;26;19996;-67
2024/04/22 04:13:36;;;;;;;8.70;7.15;;;1.90;99.90;;;;;;5322716;26;20013;-67
2024/04/22 04:16:03;;;;;;;10.65;7.63;;;1.90;99.90;;;;;;5316953;26;20009;-67
2024/04/22 04:18:30;;;;;;;9.00;6.70;;;1.90;99.90;;;;;;5317843;26;20385;-67
2024/04/22 04:20:58;;;;;;;10.23;6.18;;;2.00;99.90;;;;;;5294128;26;20481;-67
2024/04/22 04:23:24;;;;;;;9.95;7.63;;;1.90;99.90;;;;;;5324273;26;20001;-67
2024/04/22 04:25:51;;;;;;;16.05;12.63;;;2.00;99.90;;;;;;5315826;26;20002;-67
2024/04/22 04:28:19;;;;;;;14.25;7.40;;;2.00;99.90;;;;;;5316903;26;20020;-68
2024/04/22 04:30:56;;;;;;;16.65;11.48;;;1.90;99.90;;;;;;5323236;26;20021;-67
2024/04/22 04:33:24;;;;;;;10.57;7.35;;;2.00;99.90;;;;;;5375654;26;20006;-66
2024/04/22 04:36:01;;;;;;;11.10;6.88;;;2.00;99.90;;;;;;5317201;26;20041;-67
2024/04/22 04:38:28;;;;;;;14.07;6.85;;;2.00;99.90;;;;;;5317560;26;20427;-67
2024/04/22 04:40:55;;;;;;;7.57;5.82;;;2.00;99.90;;;;;;5315699;26;20080;-68
2024/04/22 04:43:22;;;;;;;10.68;7.50;;;2.00;99.90;;;;;;5315560;26;20753;-68
2024/04/22 04:45:50;;;;;;;8.90;6.63;;;2.10;99.90;;;;;;5312487;26;20065;-68
2024/04/22 04:48:18;;;;;;;8.85;6.15;;;2.10;99.90;;;;;;5321133;26;20002;-67
2024/04/22 04:50:45;;;;;;;10.25;6.80;;;2.10;99.90;;;;;;5327273;26;20005;-67
2024/04/22 04:53:18;;;;;;;10.05;6.43;;;2.10;99.90;;;;;;5323686;26;20000;-67
2024/04/22 04:55:50;;;;;;;8.82;7.15;;;2.10;99.90;;;;;;5321359;26;20036;-68
2024/04/22 04:58:17;;;;;;;12.25;6.63;;;2.10;99.90;;;;;;5324420;26;19998;-67
2024/04/22 05:00:49;;;;;;;12.38;7.00;;;2.10;99.90;;;;;;5316336;26;20009;-68
2024/04/22 05:03:16;;;;;;;12.05;6.80;;;2.10;99.90;;;;;;5317223;26;20416;-68
2024/04/22 05:05:42;;;;;;;18.95;8.15;;;2.10;99.90;;;;;;5325591;26;20009;-68
2024/04/22 05:08:09;;;;;;;7.03;5.88;;;2.10;99.90;;;;;;5313142;26;20005;-68
2024/04/22 05:10:36;;;;;;;9.35;6.20;;;2.10;99.90;;;;;;5317065;26;20037;-68
2024/04/22 05:13:03;;;;;;;11.50;7.55;;;2.10;99.90;;;;;;5299629;26;20471;-68
2024/04/22 05:15:30;;;;;;;10.07;6.63;;;2.10;99.90;;;;;;5316257;26;20386;-68
2024/04/22 05:17:57;;;;;;;11.75;6.40;;;2.10;99.90;;;;;;5321019;26;20076;-66
2024/04/22 05:20:25;;;;;;;10.18;6.95;;;2.10;99.90;;;;;;5315513;26;20009;-67
2024/04/22 05:22:52;;;;;;;11.57;7.05;;;2.10;99.90;;;;;;5323617;26;20079;-67
2024/04/22 05:25:19;;;;;;;12.05;7.70;;;2.10;99.90;;;;;;5319781;26;20010;-67
2024/04/22 05:27:46;;;;;;;16.38;8.35;;;2.20;99.90;;;;;;5324806;26;20331;-68
2024/04/22 05:30:13;;;;;;;10.77;7.00;;;2.20;99.90;;;;;;5325247;26;20024;-68
2024/04/22 05:32:44;;;;;;;9.63;7.38;;;2.20;99.90;;;;;;5321189;26;20045;-68
2024/04/22 05:37:57;;;;;;;11.05;6.75;;;2.20;99.90;;;;;;5322079;26;20006;-68
2024/04/22 05:40:24;;;;;;;11.25;7.18;;;2.20;99.90;;;;;;5319930;26;20085;-67
2024/04/22 05:42:51;;;;;;;17.35;10.07;;;2.20;99.90;;;;;;5320685;26;20001;-67
2024/04/22 05:45:18;;;;;;;9.05;7.28;;;2.20;99.90;;;;;;5313411;26;20023;-67
2024/04/22 05:47:45;;;;;;;11.13;7.30;;;2.20;99.90;;;;;;5322942;26;20047;-67
2024/04/22 05:50:17;;;;;;;10.30;6.25;;;2.20;99.90;;;;;;5314461;26;20042;-67
2024/04/22 05:52:49;;;;;;;26.05;19.10;;;2.20;99.90;;;;;;5277318;26;20016;-67
2024/04/22 05:55:15;;;;;;;12.23;9.18;;;2.20;99.90;;;;;;5313077;26;20045;-67
2024/04/22 05:57:42;;;;;;;15.20;10.18;;;2.20;99.90;;;;;;5324116;26;20024;-68
2024/04/22 06:00:10;;;;;;;9.68;7.32;;;2.20;99.90;;;;;;5317435;26;20010;-68
2024/04/22 06:02:42;;;;;;;9.65;7.10;;;2.20;99.90;;;;;;5316423;26;20017;-67
2024/04/22 06:05:09;;;;;;;16.92;8.25;;;2.20;99.90;;;;;;5324076;26;20038;-68
2024/04/22 06:07:37;;;;;;;12.48;8.45;;;2.30;99.90;;;;;;5324923;26;20028;-68
2024/04/22 06:10:04;;;;;;;10.13;7.90;;;2.30;99.90;;;;;;5323183;26;20391;-68
2024/04/22 06:12:31;;;;;;;10.88;7.63;;;2.20;99.90;;;;;;5324598;26;20016;-68
2024/04/22 06:14:58;;;;;;;10.98;7.97;;;2.20;99.90;;;;;;5320552;26;20014;-68
2024/04/22 06:17:25;;;;;;;10.88;8.70;;;2.30;99.90;;;;;;5324902;26;20012;-68
2024/04/22 06:19:52;;;;;;;12.38;9.40;;;2.30;99.90;;;;;;5324325;26;20017;-67
2024/04/22 06:22:19;;;;;;;10.57;7.90;;;2.40;99.90;;;;;;5328571;26;20032;-68
2024/04/22 06:24:47;;;;;;;13.38;9.80;;;2.40;99.90;;;;;;5309772;26;20079;-70
2024/04/22 06:27:14;;;;;;;12.80;9.48;;;2.50;99.90;;;;;;5311320;26;20010;-68
2024/04/22 06:29:40;;;;;;;12.30;7.68;;;2.50;99.90;;;;;;5309997;26;20350;-67
2024/04/22 06:32:07;;;;;;;11.75;7.57;;;2.50;99.90;;;;;;5313946;26;20009;-67
2024/04/22 06:34:34;;;;;;;13.40;7.72;;;2.60;99.90;;;;;;5327671;26;20064;-68
2024/04/22 06:37:07;;;;;;;8.75;7.05;;;2.60;99.90;;;;;;5332942;26;20005;-68
2024/04/22 06:39:33;;;;;;;12.48;7.45;;;2.70;99.90;;;;;;5331348;26;20009;-68
2024/04/22 06:42:00;;;;;;;8.60;6.88;;;2.70;99.90;;;;;;5326882;26;20014;-68
2024/04/22 06:44:27;;;;;;;9.73;6.65;;;2.70;99.90;;;;;;5328572;26;20009;-68
2024/04/22 06:46:59;;;;;;;11.48;7.80;;;2.80;99.90;;;;;;5321996;26;20006;-66
2024/04/22 06:49:26;;;;;;;10.02;6.72;;;2.80;99.90;;;;;;5328003;26;20465;-67
2024/04/22 06:51:53;;;;;;;11.18;7.00;;;2.80;99.90;;;;;;5322152;26;20001;-67
2024/04/22 06:54:20;;;;;;;9.55;6.93;;;2.80;99.90;;;;;;5323362;26;20033;-67
2024/04/22 06:56:47;;;;;;;15.38;7.88;;;2.80;99.90;;;;;;5328582;26;20029;-67
2024/04/22 06:59:14;;;;;;;10.85;7.25;;;2.80;99.90;;;;;;5325829;26;20005;-67
2024/04/22 07:01:41;;;;;;;8.65;6.60;;;2.80;99.90;;;;;;5323694;26;20017;-67
2024/04/22 07:04:08;;;;;;;12.07;7.38;;;2.80;99.90;;;;;;5331271;26;20017;-66
2024/04/22 07:06:35;;;;;;;9.80;7.20;;;2.80;99.90;;;;;;5312684;26;20081;-67
2024/04/22 07:09:09;;;;;;;11.43;7.70;;;2.90;99.90;;;;;;5321689;26;20006;-67
2024/04/22 07:11:37;;;;;;;9.77;7.60;;;2.80;99.90;;;;;;5317837;26;20006;-67
2024/04/22 07:14:13;;;;;;;8.40;7.50;;;2.90;99.90;;;;;;5322450;26;20019;-67
2024/04/22 07:16:41;;;;;;;9.90;7.05;;;2.90;99.90;;;;;;5323278;26;20397;-67
2024/04/22 07:19:14;;;;;;;9.95;8.27;;;2.90;99.90;;;;;;5325527;26;20006;-67
2024/04/22 07:21:41;;;;;;;12.80;9.25;;;3.00;99.90;;;;;;5329928;26;20005;-67
2024/04/22 07:24:13;;;;;;;10.75;9.13;;;3.00;99.90;;;;;;5298541;26;20378;-67
2024/04/22 07:26:40;;;;;;;12.45;9.52;;;3.00;99.90;;;;;;5328646;26;20001;-67
2024/04/22 07:29:07;;;;;;;12.15;10.63;;;3.00;99.90;;;;;;5330685;26;20009;-67
2024/04/22 07:31:34;;;;;;;8.90;7.55;;;3.00;99.90;;;;;;5324142;26;20020;-64
2024/04/22 07:34:01;;;;;;;9.98;8.45;;;3.00;99.90;;;;;;5330472;26;20391;-67
2024/04/22 07:36:36;;;;;;;13.77;8.13;;;3.00;99.90;;;;;;5325082;26;20029;-67
2024/04/22 07:39:05;;;;;;;9.50;7.68;;;3.00;99.90;;;;;;5319397;26;20013;-67
2024/04/22 07:41:33;;;;;;;10.20;7.25;;;3.00;99.90;;;;;;5371047;26;20020;-67
2024/04/22 07:44:01;;;;;;;9.13;7.13;;;3.10;99.90;;;;;;5282778;26;20001;-67
2024/04/22 07:46:29;;;;;;;9.60;7.18;;;3.20;99.90;;;;;;5310105;26;20017;-67
2024/04/22 07:48:56;;;;;;;11.32;7.90;;;3.30;99.90;;;;;;5312193;26;20005;-67
2024/04/22 07:51:28;;;;;;;10.23;7.90;;;3.40;99.90;;;;;;5321565;26;20853;-67
2024/04/22 07:53:57;;;;;;;9.70;7.07;;;3.50;99.90;;;;;;5292205;26;20037;-67
2024/04/22 07:56:24;;;;;;;10.45;7.13;;;3.50;99.90;;;;;;5321654;26;20080;-67
2024/04/22 07:58:51;;;;;;;12.95;7.85;;;3.60;99.90;;;;;;5324127;26;20005;-67
2024/04/22 08:01:18;;;;;;;10.45;7.60;;;3.60;99.90;;;;;;5329786;26;20075;-67
2024/04/22 08:03:46;;;;;;;11.55;7.72;;;3.70;99.90;;;;;;5321912;26;20005;-67
2024/04/22 08:06:19;;;;;;;9.45;8.15;;;3.70;99.90;;;;;;5327867;26;20017;-67
2024/04/22 08:08:46;;;;;;;15.02;8.10;;;3.90;99.90;;;;;;5313908;26;20005;-67
2024/04/22 08:11:13;;;;;;;13.18;8.40;;;3.90;99.90;;;;;;5328612;26;20009;-67
2024/04/22 08:13:40;;;;;;;8.60;7.53;;;3.90;99.90;;;;;;5320928;26;20019;-67
2024/04/22 08:16:07;;;;;;;9.45;7.72;;;3.80;99.90;;;;;;5322153;26;20006;-67
2024/04/22 08:18:34;;;;;;;9.27;8.25;;;3.80;99.90;;;;;;5318379;26;20012;-66
2024/04/22 08:21:02;;;;;;;10.57;7.82;;;3.70;99.90;;;;;;5324623;26;20458;-67
2024/04/22 08:23:30;;;;;;;8.30;7.40;;;3.70;99.90;;;;;;5313295;26;20001;-67
2024/04/22 08:25:57;;;;;;;12.23;7.72;;;3.70;99.90;;;;;;5306023;26;20033;-66
2024/04/22 08:28:24;;;;;;;11.15;8.23;;;3.70;99.90;;;;;;5311841;26;20032;-67
2024/04/22 08:31:03;;;;;;;9.73;8.48;;;3.70;99.90;;;;;;5318960;26;20078;-67
2024/04/22 08:33:30;;;;;;;10.05;8.23;;;3.70;99.90;;;;;;5315911;26;20073;-66
2024/04/22 08:36:02;;;;;;;11.50;8.60;;;3.70;99.90;;;;;;5325687;26;20362;-67
2024/04/22 08:38:29;;;;;;;9.63;8.60;;;3.70;99.90;;;;;;5325571;26;20005;-67
2024/04/22 08:40:56;;;;;;;11.63;8.55;;;3.70;99.90;;;;;;5323643;26;20021;-67
2024/04/22 08:43:23;;;;;;;11.88;9.30;;;3.80;99.90;;;;;;5327424;26;20036;-67
2024/04/22 08:45:50;;;;;;;8.68;7.75;;;3.80;99.90;;;;;;5326437;26;20016;-67
2024/04/22 08:48:18;;;;;;;13.70;8.60;;;3.80;99.90;;;;;;5322019;26;20005;-66
2024/04/22 08:50:48;;;;;;;11.80;7.93;;;3.80;99.90;;;;;;5297218;26;20086;-66
2024/04/22 08:53:15;;;;;;;12.23;7.43;;;3.80;99.90;;;;;;5322789;26;20001;-67
2024/04/22 08:55:42;;;;;;;11.23;7.90;;;3.90;99.90;;;;;;5321049;26;20496;-67
2024/04/22 08:58:09;;;;;;;8.93;7.45;;;3.90;99.90;;;;;;5319383;26;20020;-67
2024/04/22 09:00:37;;;;;;;9.60;7.20;;;3.90;99.90;;;;;;5314924;26;20022;-66
2024/04/22 09:03:04;;;;;;;10.00;6.82;;;4.00;99.90;;;;;;5310828;26;20006;-66
2024/04/22 09:05:31;;;;;;;8.20;6.47;;;4.00;99.90;;;;;;5312061;26;20009;-67
2024/04/22 09:07:58;;;;;;;10.93;6.72;;;4.10;99.90;;;;;;5322374;26;20002;-67
2024/04/22 09:10:25;;;;;;;7.70;6.05;;;4.10;99.90;;;;;;5312061;26;20056;-67
2024/04/22 09:12:55;;;;;;;7.65;5.72;;;4.20;99.90;;;;;;5320647;26;20024;-66
2024/04/22 09:15:22;;;;;;;6.50;5.45;;;4.30;99.90;;;;;;5319375;26;20075;-67
2024/04/22 09:17:49;;;;;;;7.75;5.75;;;4.30;99.90;;;;;;5320219;26;20016;-66
2024/04/22 09:20:24;;;;;;;8.40;5.93;;;4.40;99.90;;;;;;5327776;26;20010;-67
2024/04/22 09:22:51;;;;;;;6.60;5.85;;;4.50;99.90;;;;;;5351246;26;20075;-67
2024/04/22 09:25:18;;;;;;;9.55;5.90;;;4.60;99.90;;;;;;5325604;26;20009;-67
2024/04/22 09:27:49;;;;;;;8.43;6.07;;;4.70;99.90;;;;;;5299470;26;20474;-67
2024/04/22 09:30:19;;;;;;;7.43;5.82;;;4.80;99.90;;;;;;5322076;26;20009;-67
2024/04/22 09:32:47;;;;;;;7.82;4.80;;;4.90;99.90;;;;;;5326515;26;20045;-67
2024/04/22 09:35:16;;;;;;;6.43;5.28;;;5.10;99.90;;;;;;5315435;26;20572;-66
2024/04/22 09:37:49;;;;;;;8.07;5.82;;;5.20;99.90;;;;;;5312199;26;20054;-67
2024/04/22 09:40:17;;;;;;;7.65;4.90;;;5.20;99.90;;;;;;5311389;26;20248;-67
2024/04/22 09:42:51;;;;;;;5.53;4.07;;;5.20;99.90;;;;;;5308881;26;20486;-66
2024/04/22 09:45:17;;;;;;;5.53;4.47;;;5.10;99.90;;;;;;5309814;26;20026;-67
2024/04/22 09:47:46;;;;;;;8.45;4.97;;;5.10;99.90;;;;;;5312091;26;20040;-66
2024/04/22 09:50:14;;;;;;;6.22;4.70;;;5.10;99.90;;;;;;5320007;26;20001;-67
2024/04/22 09:52:41;;;;;;;7.38;5.40;;;5.00;99.90;;;;;;5315846;26;20017;-67
2024/04/22 09:55:09;;;;;;;6.60;4.72;;;5.10;99.90;;;;;;5318081;26;20333;-66
2024/04/22 09:57:39;;;;;;;6.05;4.30;;;5.10;99.90;;;;;;5323592;26;20048;-66
2024/04/22 10:00:08;;;;;;;5.97;4.50;;;5.20;99.90;;;;;;5324987;26;20013;-66
2024/04/22 10:02:37;;;;;;;5.93;4.10;;;5.10;99.90;;;;;;5323123;26;20009;-67
2024/04/22 10:05:09;;;;;;;5.68;4.18;;;5.10;99.90;;;;;;5321210;26;20094;-67
2024/04/22 10:07:36;;;;;;;10.98;6.57;;;5.10;99.90;;;;;;5321401;26;20521;-67
2024/04/22 10:10:09;;;;;;;6.57;4.25;;;5.20;99.90;;;;;;5350927;26;20016;-66
2024/04/22 10:12:35;;;;;;;5.03;4.05;;;5.20;99.90;;;;;;5323295;26;20010;-66
2024/04/22 10:15:13;;;;;;;5.13;3.85;;;5.20;99.90;;;;;;5323121;26;20473;-66
2024/04/22 10:17:43;;;;;;;7.07;3.85;;;5.20;99.90;;;;;;5315997;26;20646;-66
2024/04/22 10:20:11;;;;;;;6.32;4.22;;;5.10;99.90;;;;;;5316129;26;20342;-67
2024/04/22 10:22:38;;;;;;;5.20;3.97;;;5.10;99.90;;;;;;5310616;26;20101;-66
2024/04/22 10:25:08;;;;;;;6.82;4.47;;;5.20;99.90;;;;;;5321129;26;20556;-66
2024/04/22 10:27:35;;;;;;;6.22;4.45;;;5.30;99.90;;;;;;5321127;26;20420;-66
2024/04/22 10:30:08;;;;;;;5.90;4.05;;;5.40;99.90;;;;;;5288167;26;20005;-66
2024/04/22 10:32:34;;;;;;;5.43;4.15;;;5.50;99.90;;;;;;5322532;26;20008;-67
2024/04/22 10:35:06;;;;;;;7.03;4.40;;;5.70;99.90;;;;;;5319875;26;20028;-66
2024/04/22 10:37:33;;;;;;;4.30;3.65;;;5.90;99.90;;;;;;5324996;26;20479;-66
2024/04/22 10:40:06;;;;;;;5.20;3.75;;;6.10;99.90;;;;;;5324857;26;20015;-66
2024/04/22 10:42:33;;;;;;;8.85;5.40;;;6.30;99.90;;;;;;5328017;26;20025;-66
2024/04/22 10:45:00;;;;;;;7.75;4.25;;;6.20;99.90;;;;;;5321677;26;20010;-66
2024/04/22 10:47:27;;;;;;;6.22;5.00;;;6.20;99.90;;;;;;5322033;26;20005;-65
2024/04/22 10:49:54;;;;;;;7.13;5.05;;;6.10;99.90;;;;;;5326342;26;20076;-66
2024/04/22 10:52:24;;;;;;;6.15;4.80;;;6.00;99.90;;;;;;5317162;26;20028;-66
2024/04/22 10:54:51;;;;;;;7.07;4.47;;;6.00;99.90;;;;;;5314823;26;20017;-66
2024/04/22 10:57:19;;;;;;;5.63;4.15;;;6.20;99.90;;;;;;5330497;26;20020;-66
2024/04/22 10:59:46;;;;;;;5.03;4.07;;;6.20;99.90;;;;;;5324683;26;20006;-66
2024/04/22 11:02:13;;;;;;;11.95;4.72;;;6.10;99.90;;;;;;5317021;26;20358;-66
2024/04/22 11:04:40;;;;;;;8.50;4.93;;;6.20;99.90;;;;;;5310206;26;20006;-65
2024/04/22 11:07:07;;;;;;;3.95;3.20;;;6.20;99.90;;;;;;5308293;26;20014;-66
2024/04/22 11:09:34;;;;;;;6.18;3.53;;;6.30;99.90;;;;;;5322551;26;20458;-66
2024/04/22 11:12:01;;;;;;;4.70;3.80;;;6.30;99.90;;;;;;5313736;26;20021;-66
2024/04/22 11:14:30;;;;;;;7.10;3.95;;;6.50;99.90;;;;;;5321741;26;20001;-66
2024/04/22 11:16:57;;;;;;;8.73;4.85;;;6.70;99.90;;;;;;5330601;26;20035;-66
2024/04/22 11:19:24;;;;;;;10.93;7.03;;;6.90;99.90;;;;;;5319679;26;20002;-66
2024/04/22 11:21:57;;;;;;;6.35;4.25;;;7.00;99.90;;;;;;5325016;26;20551;-66
2024/04/22 11:24:24;;;;;;;4.78;4.00;;;7.30;99.90;;;;;;5356010;26;20006;-66
2024/04/22 11:26:51;;;;;;;7.20;4.10;;;7.40;99.90;;;;;;5327008;26;20025;-66
2024/04/22 11:29:19;;;;;;;5.20;4.00;;;7.50;99.90;;;;;;5321567;26;20079;-66
2024/04/22 11:31:46;;;;;;;4.80;3.35;;;7.50;99.90;;;;;;5320079;26;20466;-65
2024/04/22 11:34:13;;;;;;;5.65;3.92;;;7.50;99.90;;;;;;5325520;26;20041;-66
2024/04/22 11:36:41;;;;;;;5.32;4.60;;;7.50;99.90;;;;;;5316320;26;20963;-66
2024/04/22 11:39:15;;;;;;;7.43;5.30;;;7.40;99.90;;;;;;5306598;26;20077;-66
2024/04/22 11:41:42;;;;;;;;;;;7.40;99.90;;;;;;5312219;26;20517;-66
2024/04/22 11:44:09;;;;;;;10.13;5.65;;;7.30;99.90;;;;;;5312924;26;19950;-66
2024/04/22 11:46:37;;;;;;;8.48;5.32;;;7.30;99.90;;;;;;5316711;26;20006;-66
2024/04/22 11:49:07;;;;;;;7.10;5.32;;;7.30;99.90;;;;;;5324762;26;20020;-66
2024/04/22 11:51:34;;;;;;;6.50;4.03;;;7.20;99.90;;;;;;5321890;26;20029;-66
2024/04/22 11:54:04;;;;;;;5.95;3.35;;;7.30;99.90;;;;;;5368831;26;20005;-66
2024/04/22 11:56:40;;;;;;;5.20;3.88;;;7.40;99.90;;;;;;5305232;26;20005;-66
2024/04/22 11:59:11;;;;;;;6.45;3.78;;;7.60;99.90;;;;;;5324288;26;20019;-66
2024/04/22 12:01:39;;;;;;;4.43;3.83;;;7.60;99.90;;;;;;5315658;26;20017;-66
2024/04/22 12:04:06;;;;;;;5.65;3.88;;;7.60;99.90;;;;;;5322696;26;20466;-66
2024/04/22 12:06:33;;;;;;;4.13;3.60;;;7.60;99.90;;;;;;5316393;26;20029;-65
2024/04/22 12:09:00;;;;;;;4.15;3.53;;;7.70;99.90;;;;;;5326782;26;20001;-66
2024/04/22 12:11:32;;;;;;;3.55;2.90;;;7.70;99.90;;;;;;5320760;26;20020;-65
2024/04/22 12:14:00;;;;;;;7.03;3.63;;;7.80;99.90;;;;;;5315968;26;20002;-66
2024/04/22 12:16:27;;;;;;;3.67;3.03;;;7.80;99.90;;;;;;5312716;26;20020;-66
2024/04/22 12:18:54;;;;;;;4.15;3.60;;;7.90;99.90;;;;;;5318403;26;20005;-66
2024/04/22 12:21:26;;;;;;;4.65;4.07;;;8.00;99.90;;;;;;5315453;26;20020;-65
2024/04/22 12:23:53;;;;;;;3.70;3.13;;;8.20;99.90;;;;;;5307244;26;20057;-66
2024/04/22 12:26:25;;;;;;;3.28;2.88;;;8.40;99.90;;;;;;5313084;26;20013;-66
2024/04/22 12:28:52;;;;;;;4.25;3.53;;;8.50;99.90;;;;;;5321481;26;20436;-66
2024/04/22 12:31:24;;;;;;;6.25;3.97;;;8.60;99.90;;;;;;5316532;26;20056;-66
2024/04/22 12:33:50;;;;;;;7.60;5.53;;;8.60;99.90;;;;;;5324334;26;20009;-66
2024/04/22 12:36:17;;;;;;;7.50;6.20;;;8.50;99.90;;;;;;5316616;26;20005;-66
2024/04/22 12:38:44;;;;;;;6.13;4.40;;;8.40;99.90;;;;;;5322174;26;20020;-66
2024/04/22 12:41:11;;;;;;;5.18;4.05;;;8.20;99.90;;;;;;5312557;26;20002;-66
2024/04/22 12:43:38;;;;;;;5.72;3.30;;;8.10;99.90;;;;;;5322578;26;20009;-65
2024/04/22 12:46:05;;;;;;;6.82;4.80;;;7.90;99.90;;;;;;5324487;26;20075;-65
2024/04/22 12:51:18;;;;;;;6.38;4.80;;;7.80;99.90;;;;;;5329502;26;20013;-66
2024/04/22 12:53:45;;;;;;;6.53;5.38;;;7.90;99.90;;;;;;5310440;26;20519;-66
2024/04/22 12:56:12;;;;;;;5.30;4.15;;;7.90;99.90;;;;;;5309641;26;20018;-66
2024/04/22 12:58:44;;;;;;;6.07;3.42;;;8.10;99.90;;;;;;5311204;26;20029;-65
2024/04/22 13:01:16;;;;;;;4.18;3.35;;;8.20;99.90;;;;;;5305429;26;20029;-65
2024/04/22 13:03:43;;;;;;;3.88;3.13;;;8.30;99.90;;;;;;5324288;26;20013;-66
2024/04/22 13:06:10;;;;;;;5.28;3.10;;;8.30;99.90;;;;;;5315338;26;20001;-66